Hauptseite
METAR-TAF:

METAR-TAF

Flughäfen :

Militärflugplatz Cazaux

Cazaux, Frankreich

Breite: 44-32N, Länge: 001-08W, Höhe: 25 m

Beobachtung

Neuester Wetterbericht von vor 23 Minuten, um 16:00 UTC
Wind 15 kt aus West/Nordwest, variierte zwischen West und Nordwest
Temperatur 24°C
Luftfeuchtigkeit 61%
Luftdruck 1018 hPa
Sichtweite 10 km oder mehr
Durchbrochene Bewölkung in der Höhe von 2600 ft

METAR: LFBC 161600Z AUTO 29015KT 260V320 9999 BKN026 24/16 Q1018 BECMG 31015G25KT

Zeit: 18:23 (16:23 UTC)

Prognose

Neuester Wetterbericht von vor 2 Stunden und 23 Minuten, um 14:00 UTC
Gültige Prognose vom 16 um 15 UTC bis 17 um 15 UTC
Wind 15 kt aus Nordwest, Böen bis zu 25 kt
Sichtweite 10 km oder mehr
Aufgelockert bewölkt in der Höhe von 2500 ft
Übergehend zu
vom 16 um 18 UTC bis 16 um 20 UTC
Wind 8 kt aus West/Nordwest

TAF: LFBC 161400Z 1615/1715 31015G25KT 9999 SCT025 BECMG 1618/1620 30008KT

Wetterbeobachtungen und Prognosen von mehr als 4000 Flughäfen (METAR und TAF Bericht).

Die verfügbaren Stationen werden durch gelbe und rote Markierungen auf der Karte dargestellt.

Führen Sie die Maus auf sie, um den Namen der Station zu sehen.

Darauf klicken, um die Beobachtung von Wetterbeobachtungen und Prognosen zu sehen.

Um die Karte zu ändern : klicken Sie auf den grünen Tasten mit einem schwarzen Kreuz Zum Vergrößern, auf den grünen Button mit einem Gedankenstrich zu verkleinern, oder auf die grünen Pfeile für benachbarte Karten.


METAR-TAF: